createdAt,value
2017-02-27T04:29:26.016Z,997.93
2017-02-27T04:30:14.345Z,997.92
2017-02-27T04:31:03.084Z,998
2017-02-27T04:31:52.245Z,997.93
2017-02-27T04:32:40.543Z,997.96
2017-02-27T04:33:29.962Z,998.01
2017-02-27T04:34:18.485Z,997.93
2017-02-27T04:35:06.599Z,997.97
2017-02-27T04:35:55.997Z,997.95
2017-02-27T04:36:44.069Z,997.94
2017-02-27T04:37:33.407Z,997.93
2017-02-27T04:38:21.667Z,997.87
2017-02-27T04:39:10.898Z,997.83
2017-02-27T04:39:59.530Z,997.85
2017-02-27T04:40:48.111Z,997.87
2017-02-27T04:41:36.954Z,997.81
2017-02-27T04:42:26.030Z,997.81
2017-02-27T04:43:14.081Z,997.82
2017-02-27T04:44:03.471Z,997.77
2017-02-27T04:44:52.039Z,997.77
2017-02-27T04:45:40.970Z,997.74
2017-02-27T04:46:29.490Z,997.71
2017-02-27T04:47:18.028Z,997.71
2017-02-27T04:48:07.041Z,997.63
2017-02-27T04:48:56.498Z,997.65
2017-02-27T04:49:44.988Z,997.63
2017-02-27T04:50:33.265Z,997.62
2017-02-27T04:51:22.482Z,997.6
2017-02-27T04:52:11.834Z,997.7
2017-02-27T04:53:00.436Z,997.64
2017-02-27T04:53:49.169Z,997.59
2017-02-27T04:54:38.195Z,997.64
2017-02-27T04:55:27.098Z,997.6
2017-02-27T04:56:15.501Z,997.62
2017-02-27T04:57:04.354Z,997.62
2017-02-27T04:57:52.725Z,997.63
2017-02-27T04:58:41.944Z,997.58
2017-02-27T04:59:30.246Z,997.65
2017-02-27T05:00:19.488Z,997.66
2017-02-27T05:01:07.730Z,997.61
2017-02-27T05:22:30.933Z,997.48
2017-02-27T05:23:19.411Z,997.5
2017-02-27T05:24:08.407Z,997.54
2017-02-27T05:24:57.190Z,997.5
2017-02-27T05:25:45.576Z,997.46
2017-02-27T05:26:33.921Z,997.47
2017-02-27T05:27:22.847Z,997.41
2017-02-27T05:28:11.863Z,997.41
2017-02-27T05:29:00.049Z,997.42
2017-02-27T05:29:49.378Z,997.41
2017-02-27T05:30:39.058Z,997.47
2017-02-27T05:31:27.348Z,997.43
2017-02-27T05:32:16.004Z,997.45
2017-02-27T05:33:04.618Z,997.4
2017-02-27T05:33:54.558Z,997.47
2017-02-27T05:34:42.123Z,997.48
2017-02-27T05:42:31.079Z,997.38
2017-02-27T05:43:19.960Z,997.46
2017-02-27T05:44:09.037Z,997.42
2017-02-27T05:44:57.930Z,997.39
2017-02-27T05:45:46.384Z,997.4
2017-02-27T05:46:35.178Z,997.35
2017-02-27T05:47:24.040Z,997.37
2017-02-27T05:48:13.666Z,997.36
2017-02-27T05:49:02.552Z,997.31
2017-02-27T05:49:53.719Z,997.33
2017-02-27T05:50:41.220Z,997.26
2017-02-27T05:51:31.136Z,997.33
2017-02-27T05:52:19.899Z,997.31
2017-02-27T05:59:58.938Z,997.22
2017-02-27T06:00:47.281Z,997.22
2017-02-27T06:01:36.436Z,997.23
2017-02-27T06:02:25.205Z,997.22
2017-02-27T06:03:13.892Z,997.29
2017-02-27T06:04:02.505Z,997.24
2017-02-27T06:04:51.068Z,997.2
2017-02-27T06:07:13.736Z,997.22
2017-02-27T06:08:02.585Z,997.21
2017-02-27T06:08:51.425Z,997.19
2017-02-27T06:09:40.031Z,997.15
2017-02-27T06:10:28.478Z,997.17
2017-02-27T06:11:17.431Z,997.18
2017-02-27T06:12:06.599Z,997.17
2017-02-27T06:12:55.585Z,997.15
2017-02-27T06:13:44.123Z,997.15
2017-02-27T06:14:31.256Z,997.13
2017-02-27T06:15:20.461Z,997.08
2017-02-27T06:16:08.096Z,997.1
2017-02-27T06:16:48.487Z,997.11
2017-02-27T06:17:29.262Z,997.13
2017-02-27T06:18:09.741Z,997.12
2017-02-27T06:18:50.271Z,997.13
2017-02-27T06:19:30.721Z,997.1
2017-02-27T06:20:11.237Z,997.12
2017-02-27T06:20:51.732Z,997.08
2017-02-27T06:21:32.395Z,997.03
2017-02-27T06:22:12.869Z,997.04
2017-02-27T06:22:55.774Z,996.99
2017-02-27T06:23:39.876Z,996.98
2017-02-27T06:24:20.349Z,997
2017-02-27T06:25:00.844Z,997.01
2017-02-27T06:25:41.354Z,997
2017-02-27T06:26:21.847Z,997.04
2017-02-27T06:27:02.392Z,997.06
2017-02-27T06:27:42.930Z,997.04
2017-02-27T06:28:23.423Z,997.03
2017-02-27T06:29:03.886Z,997.04
2017-02-27T06:29:44.491Z,997.02
2017-02-27T06:30:24.962Z,997.02
2017-02-27T06:31:05.401Z,997.05
2017-02-27T06:31:45.898Z,997.06
2017-02-27T06:32:26.375Z,997.05
2017-02-27T06:33:06.886Z,997.04
2017-02-27T06:33:47.464Z,997
2017-02-27T06:34:27.893Z,997.03
2017-02-27T06:35:08.389Z,996.98
2017-02-27T06:35:48.873Z,997
2017-02-27T06:36:29.370Z,997.02
2017-02-27T06:37:09.832Z,997.01
2017-02-27T06:37:50.337Z,997.02
2017-02-27T06:38:30.813Z,997.05
2017-02-27T06:39:11.329Z,997.03
2017-02-27T06:39:51.794Z,997.02
2017-02-27T06:40:32.329Z,997.04
2017-02-27T06:41:12.823Z,997
2017-02-27T06:41:53.317Z,997
2017-02-27T06:42:33.898Z,996.99
2017-02-27T06:43:14.313Z,997
2017-02-27T06:43:54.820Z,996.98
2017-02-27T06:44:35.343Z,996.98
2017-02-27T06:45:15.866Z,996.94
2017-02-27T06:45:56.470Z,996.93
2017-02-27T06:46:36.948Z,996.98
2017-02-27T06:47:17.388Z,996.95
2017-02-27T06:47:57.911Z,996.97
2017-02-27T06:48:41.040Z,996.95
2017-02-27T06:49:19.147Z,996.99
2017-02-27T06:49:59.614Z,997.01
2017-02-27T06:50:40.119Z,997.03
2017-02-27T06:51:20.637Z,996.99
2017-02-27T06:52:01.122Z,997.01
2017-02-27T06:52:41.700Z,996.97
2017-02-27T06:53:22.255Z,996.99
2017-02-27T06:54:02.659Z,996.95
2017-02-27T06:54:43.171Z,996.94
2017-02-27T06:55:23.688Z,996.96
2017-02-27T06:56:04.223Z,996.97
2017-02-27T06:56:44.694Z,996.93
2017-02-27T06:57:25.198Z,996.94
2017-02-27T06:58:05.736Z,996.92
2017-02-27T06:58:46.410Z,996.94
2017-02-27T06:59:26.887Z,996.9
2017-02-27T07:00:07.368Z,996.85
2017-02-27T07:00:47.897Z,996.88
2017-02-27T07:01:28.413Z,996.92
2017-02-27T07:02:08.941Z,996.9
2017-02-27T07:02:49.462Z,996.88
2017-02-27T07:03:30.083Z,996.93
2017-02-27T07:04:10.432Z,996.88
2017-02-27T07:04:50.944Z,996.84
2017-02-27T07:05:31.382Z,996.87
2017-02-27T07:06:11.918Z,996.84
2017-02-27T07:06:52.430Z,996.83
2017-02-27T07:07:32.921Z,996.83
2017-02-27T07:08:13.438Z,996.81
2017-02-27T07:08:53.971Z,996.82
2017-02-27T07:09:34.446Z,996.83
2017-02-27T07:10:14.941Z,996.83
2017-02-27T07:10:55.445Z,996.84
2017-02-27T07:11:36.026Z,996.8
2017-02-27T07:12:16.478Z,996.83
2017-02-27T07:12:56.994Z,996.79
2017-02-27T07:13:37.493Z,996.81
2017-02-27T07:14:18.033Z,996.81
2017-02-27T07:14:58.520Z,996.81
2017-02-27T07:15:39.218Z,996.82
2017-02-27T07:16:19.683Z,996.78
2017-02-27T07:17:00.193Z,996.81
2017-02-27T07:17:40.684Z,996.83
2017-02-27T07:18:21.161Z,996.8
2017-02-27T07:19:01.679Z,996.78
2017-02-27T07:19:42.174Z,996.77
2017-02-27T07:20:23.407Z,996.78
2017-02-27T07:21:03.923Z,996.75
2017-02-27T07:21:44.488Z,996.78
2017-02-27T07:22:25.115Z,996.74
2017-02-27T07:23:05.652Z,996.75
2017-02-27T07:23:46.159Z,996.76
2017-02-27T07:24:26.772Z,996.74
2017-02-27T07:25:07.186Z,996.82
2017-02-27T07:25:47.663Z,996.76
2017-02-27T07:26:28.178Z,996.78
2017-02-27T07:27:08.684Z,996.81
2017-02-27T07:27:49.205Z,996.74
2017-02-27T07:28:29.683Z,996.72
2017-02-27T07:29:10.276Z,996.73
2017-02-27T07:29:50.847Z,996.72
2017-02-27T07:30:31.335Z,996.74
2017-02-27T07:31:12.052Z,996.75
2017-02-27T07:31:52.627Z,996.72
2017-02-27T07:32:33.113Z,996.7
2017-02-27T07:33:13.570Z,996.72
2017-02-27T07:33:54.234Z,996.74
2017-02-27T07:34:34.912Z,996.71
2017-02-27T07:35:15.417Z,996.65
2017-02-27T07:35:55.913Z,996.65
2017-02-27T07:36:36.412Z,996.66
2017-02-27T07:37:16.973Z,996.69
2017-02-27T07:37:57.449Z,996.64
2017-02-27T07:38:38.315Z,996.68
2017-02-27T07:39:18.727Z,996.67
2017-02-27T07:39:59.254Z,996.66
2017-02-27T07:40:39.820Z,996.66
2017-02-27T07:41:20.736Z,996.65
2017-02-27T07:42:01.215Z,996.65
2017-02-27T07:42:41.773Z,996.63
2017-02-27T07:43:22.236Z,996.65
2017-02-27T07:44:02.724Z,996.62
2017-02-27T07:44:43.380Z,996.59
2017-02-27T07:45:23.910Z,996.57
2017-02-27T07:46:04.705Z,996.57
2017-02-27T07:46:45.154Z,996.52
2017-02-27T07:47:25.599Z,996.5
2017-02-27T07:48:06.089Z,996.46
2017-02-27T07:48:46.623Z,996.45
2017-02-27T07:49:27.115Z,996.42
2017-02-27T07:50:07.609Z,996.4
2017-02-27T07:50:48.303Z,996.45
2017-02-27T07:51:28.868Z,996.43
2017-02-27T07:52:09.366Z,996.42
2017-02-27T07:52:49.831Z,996.37
2017-02-27T07:53:30.337Z,996.39
2017-02-27T07:54:10.861Z,996.41
2017-02-27T07:54:51.433Z,996.38
2017-02-27T07:55:31.905Z,996.43
2017-02-27T07:56:12.358Z,996.38
2017-02-27T07:56:52.899Z,996.4
2017-02-27T07:57:33.414Z,996.42
2017-02-27T07:58:14.067Z,996.42
2017-02-27T07:58:54.535Z,996.4
2017-02-27T07:59:35.066Z,996.39
2017-02-27T08:00:15.528Z,996.37
2017-02-27T08:00:56.039Z,996.34
2017-02-27T08:01:36.574Z,996.31
2017-02-27T08:02:17.133Z,996.26
2017-02-27T08:02:57.604Z,996.28
2017-02-27T08:03:38.284Z,996.22
2017-02-27T08:04:19.014Z,996.23
2017-02-27T08:04:59.570Z,996.24
2017-02-27T08:05:40.033Z,996.24
2017-02-27T08:06:20.546Z,996.22
2017-02-27T08:07:01.098Z,996.22
2017-02-27T08:07:44.543Z,996.23
2017-02-27T08:08:25.607Z,996.22
2017-02-27T08:09:06.103Z,996.23
2017-02-27T08:09:46.658Z,996.22
2017-02-27T08:10:27.105Z,996.25
2017-02-27T08:11:07.642Z,996.28
2017-02-27T08:11:48.374Z,996.25
2017-02-27T08:12:28.913Z,996.25
2017-02-27T08:13:09.374Z,996.21
2017-02-27T08:13:49.871Z,996.23
2017-02-27T08:14:30.374Z,996.26
2017-02-27T08:15:11.000Z,996.21
2017-02-27T08:15:51.483Z,996.19
2017-02-27T08:16:32.007Z,996.15
2017-02-27T08:17:12.567Z,996.19
2017-02-27T08:17:53.239Z,996.09
2017-02-27T08:18:33.774Z,996.11
2017-02-27T08:19:14.320Z,996.11
2017-02-27T08:19:54.806Z,996.08
2017-02-27T08:20:35.319Z,996.02
2017-02-27T08:21:15.944Z,996.05
2017-02-27T08:22:05.577Z,996.07
2017-02-27T08:22:46.109Z,996.04
2017-02-27T08:23:26.549Z,995.99
2017-02-27T08:24:07.297Z,996.09
2017-02-27T08:24:47.756Z,995.99
2017-02-27T08:25:28.212Z,995.97
2017-02-27T08:26:08.744Z,995.94
2017-02-27T08:26:49.214Z,995.97
2017-02-27T08:27:29.753Z,995.93
2017-02-27T08:28:10.868Z,995.95
2017-02-27T08:31:21.610Z,995.91
2017-02-27T08:32:10.245Z,995.91
2017-02-27T08:32:58.826Z,995.88
2017-02-27T08:33:47.553Z,995.91
2017-02-27T08:34:36.982Z,995.86
2017-02-27T08:35:25.244Z,995.92
2017-02-27T08:36:15.012Z,995.86
2017-02-27T08:37:03.431Z,995.83
2017-02-27T08:37:51.804Z,995.8
2017-02-27T08:38:41.041Z,995.8
2017-02-27T08:39:29.761Z,995.76
2017-02-27T08:40:17.668Z,995.77
2017-02-27T08:41:06.688Z,995.81
2017-02-27T08:41:55.477Z,995.74
2017-02-27T08:42:43.959Z,995.71
2017-02-27T08:43:42.287Z,995.68
2017-02-27T08:45:51.709Z,995.61
2017-02-27T08:54:49.073Z,995.45
2017-02-27T08:57:20.018Z,995.54
2017-02-27T09:05:43.241Z,995.37
2017-02-27T09:10:56.997Z,995.32
2017-02-27T09:11:50.830Z,995.4
2017-02-27T09:15:47.588Z,995.26
2017-02-27T09:16:37.775Z,995.27
2017-02-27T09:17:28.454Z,995.31
2017-02-27T09:23:53.004Z,995.28
2017-02-27T09:25:53.631Z,995.23
2017-02-27T09:27:48.060Z,995.27
2017-02-27T09:28:31.603Z,995.26
2017-02-27T09:30:02.396Z,995.16
2017-02-27T09:30:42.838Z,995.21
2017-02-27T09:31:23.368Z,995.18
2017-02-27T09:32:03.913Z,995.18
2017-02-27T09:32:44.557Z,995.15
2017-02-27T09:33:25.136Z,995.17
2017-02-27T09:34:05.720Z,995.14
2017-02-27T09:34:46.255Z,995.1
2017-02-27T09:35:26.825Z,995.15
2017-02-27T09:36:07.382Z,995.13
2017-02-27T09:36:47.843Z,995.1
2017-02-27T09:37:28.687Z,995.11
2017-02-27T09:38:08.854Z,995.08
2017-02-27T09:38:49.481Z,995.02
2017-02-27T09:39:29.916Z,995.04
2017-02-27T09:40:10.617Z,995.03
2017-02-27T09:40:51.092Z,995.02
2017-02-27T09:41:31.802Z,994.97
2017-02-27T09:42:12.417Z,994.93
2017-02-27T09:42:52.843Z,994.96
2017-02-27T09:43:33.379Z,995.01
2017-02-27T09:44:13.887Z,994.95
2017-02-27T09:44:54.339Z,994.96
2017-02-27T09:45:34.875Z,994.97
2017-02-27T09:46:16.395Z,994.89
2017-02-27T09:46:57.005Z,994.91
2017-02-27T09:47:37.609Z,994.9
2017-02-27T09:48:18.078Z,994.92
2017-02-27T09:49:00.329Z,994.9
2017-02-27T09:49:42.827Z,994.89
2017-02-27T09:50:23.354Z,994.89
2017-02-27T09:51:04.167Z,994.85
2017-02-27T09:51:44.721Z,994.78
2017-02-27T09:52:25.088Z,994.76
2017-02-27T09:55:06.480Z,994.69
2017-02-27T09:55:46.103Z,994.79
2017-02-27T09:56:26.633Z,994.71
2017-02-27T09:57:07.324Z,994.72
2017-02-27T09:57:47.761Z,994.73
2017-02-27T09:58:28.310Z,994.71
2017-02-27T09:59:08.784Z,994.71
2017-02-27T09:59:49.316Z,994.72
2017-02-27T10:00:29.875Z,994.67
2017-02-27T10:01:10.396Z,994.69
2017-02-27T10:01:50.873Z,994.63
2017-02-27T10:02:31.646Z,994.7
2017-02-27T10:03:12.604Z,994.61
2017-02-27T10:03:53.172Z,994.63
2017-02-27T10:04:33.686Z,994.63
2017-02-27T10:05:14.242Z,994.63
2017-02-27T10:05:54.662Z,994.62
2017-02-27T10:06:35.214Z,994.61
2017-02-27T10:07:15.739Z,994.59
2017-02-27T10:07:56.211Z,994.62
2017-02-27T10:08:36.786Z,994.56
2017-02-27T10:09:17.210Z,994.53
2017-02-27T10:09:57.885Z,994.59
2017-02-27T10:10:38.620Z,994.5
2017-02-27T10:11:19.110Z,994.55
2017-02-27T10:11:59.664Z,994.49
2017-02-27T10:12:40.213Z,994.56
2017-02-27T10:13:20.598Z,994.5
2017-02-27T10:14:01.107Z,994.51
2017-02-27T10:14:43.928Z,994.42
2017-02-27T10:15:24.455Z,994.47
2017-02-27T10:16:04.965Z,994.44
2017-02-27T10:16:45.439Z,994.46
2017-02-27T10:17:25.896Z,994.42
2017-02-27T10:18:06.414Z,994.4
2017-02-27T10:18:46.861Z,994.41
2017-02-27T10:19:27.363Z,994.38
2017-02-27T10:20:07.884Z,994.31
2017-02-27T10:20:48.641Z,994.38
2017-02-27T10:21:29.166Z,994.27
2017-02-27T10:22:09.619Z,994.29
2017-02-27T10:22:50.201Z,994.26
2017-02-27T10:23:30.651Z,994.22
2017-02-27T10:24:11.154Z,994.22
2017-02-27T10:24:51.723Z,994.21
2017-02-27T10:25:32.198Z,994.21
2017-02-27T10:26:15.310Z,994.21
2017-02-27T10:26:55.876Z,994.21
2017-02-27T10:27:36.544Z,994.19
2017-02-27T10:28:19.297Z,994.22
2017-02-27T10:28:59.734Z,994.12
2017-02-27T10:29:40.274Z,994.13
2017-02-27T10:30:20.838Z,994.12
2017-02-27T10:31:01.377Z,994.07
2017-02-27T10:31:41.857Z,994.13
2017-02-27T10:32:22.351Z,994.05
2017-02-27T10:33:02.914Z,994.12
2017-02-27T10:33:44.107Z,994.04
2017-02-27T10:34:23.889Z,994.01
2017-02-27T10:35:04.411Z,994.07
2017-02-27T10:35:44.883Z,994.07
2017-02-27T10:36:25.594Z,994.03
2017-02-27T10:37:09.745Z,994
2017-02-27T10:37:54.047Z,993.92
2017-02-27T10:47:11.148Z,993.91
2017-02-27T11:13:52.627Z,993.25
2017-02-27T11:14:35.072Z,993.23
2017-02-27T11:15:15.570Z,993.27
2017-02-27T11:15:56.072Z,993.19
2017-02-27T11:16:36.610Z,993.2
2017-02-27T11:17:17.140Z,993.18
2017-02-27T11:17:57.597Z,993.16
2017-02-27T11:18:38.056Z,993.18
2017-02-27T11:19:18.597Z,993.14
2017-02-27T11:19:59.077Z,993.16
2017-02-27T11:20:39.562Z,993.18
2017-02-27T11:21:20.349Z,993.1
2017-02-27T11:22:00.906Z,993.14
2017-02-27T11:22:41.587Z,993.04
2017-02-27T11:23:22.099Z,993.09
2017-02-27T11:24:03.621Z,993.08
2017-02-27T11:24:44.231Z,993.07
2017-02-27T11:25:24.679Z,993.1
2017-02-27T11:26:05.181Z,993.08
2017-02-27T11:26:45.723Z,993.12
2017-02-27T11:27:26.274Z,993.09
2017-02-27T11:28:06.979Z,993.09
2017-02-27T11:28:47.459Z,993.05
2017-02-27T11:29:28.026Z,993.02
2017-02-27T11:30:08.550Z,993
2017-02-27T11:30:49.142Z,992.91
2017-02-27T11:31:29.703Z,992.93
2017-02-27T11:32:10.159Z,992.93
2017-02-27T11:32:50.712Z,992.93
2017-02-27T11:33:31.346Z,992.87
2017-02-27T11:34:11.836Z,992.88
2017-02-27T11:34:52.314Z,992.89
2017-02-27T11:35:32.867Z,992.89
2017-02-27T11:36:13.379Z,992.77
2017-02-27T11:36:53.895Z,992.83
2017-02-27T11:37:34.389Z,992.83
2017-02-27T11:38:14.955Z,992.82
2017-02-27T11:38:55.352Z,992.81
2017-02-27T11:39:35.958Z,992.78
2017-02-27T11:40:16.407Z,992.73
2017-02-27T11:40:57.488Z,992.73
2017-02-27T11:41:37.416Z,992.66
2017-02-27T11:42:17.869Z,992.63
2017-02-27T11:42:58.373Z,992.67
2017-02-27T11:43:38.856Z,992.66
2017-02-27T11:44:19.433Z,992.66
2017-02-27T11:44:59.954Z,992.67
2017-02-27T11:45:40.485Z,992.62
2017-02-27T11:46:21.024Z,992.62
2017-02-27T11:47:03.269Z,992.64
2017-02-27T11:47:43.056Z,992.61
2017-02-27T11:48:23.587Z,992.62
2017-02-27T11:49:04.119Z,992.56
2017-02-27T11:49:44.581Z,992.57
2017-02-27T11:50:25.208Z,992.46
2017-02-27T11:51:05.653Z,992.46
2017-02-27T11:51:46.299Z,992.45
2017-02-27T11:52:26.711Z,992.39
2017-02-27T11:53:07.480Z,992.42
2017-02-27T11:53:48.056Z,992.37
2017-02-27T11:54:28.496Z,992.39
2017-02-27T11:55:09.098Z,992.36
2017-02-27T11:55:49.859Z,992.24
2017-02-27T11:56:30.631Z,992.32
2017-02-27T11:57:11.018Z,992.27
2017-02-27T11:57:51.549Z,992.27
2017-02-27T11:58:43.603Z,992.25
2017-02-27T11:59:29.246Z,992.26
2017-02-27T12:09:40.036Z,991.92
2017-02-27T12:10:27.376Z,991.89
2017-02-27T12:12:37.092Z,991.9
2017-02-27T12:15:43.424Z,991.75
2017-02-27T12:16:44.407Z,991.76
2017-02-27T12:19:29.372Z,991.64
2017-02-27T12:22:03.274Z,991.53
2017-02-27T12:23:00.303Z,991.52
2017-02-27T12:23:52.250Z,991.49
2017-02-27T12:26:24.531Z,991.53
2017-02-27T12:28:05.331Z,991.49
2017-02-27T12:31:03.346Z,991.42
2017-02-27T12:35:18.557Z,991.2
2017-02-27T12:38:56.919Z,991.16
2017-02-27T12:39:47.799Z,991.11
2017-02-27T12:41:45.803Z,991.15
2017-02-27T12:42:36.898Z,991.09
2017-02-27T12:43:25.399Z,991.01
2017-02-27T12:50:07.904Z,990.84
2017-02-27T12:52:56.304Z,990.77
2017-02-27T12:53:45.441Z,990.71
2017-02-27T12:54:25.299Z,990.73
2017-02-27T12:55:06.091Z,990.69
2017-02-27T12:55:46.474Z,990.65
2017-02-27T12:56:26.974Z,990.68
2017-02-27T12:57:07.506Z,990.64
2017-02-27T12:57:47.964Z,990.65
2017-02-27T12:58:28.438Z,990.58
2017-02-27T12:59:08.974Z,990.63
2017-02-27T12:59:49.912Z,990.55
2017-02-27T13:00:30.453Z,990.53
2017-02-27T13:01:10.936Z,990.5
2017-02-27T13:01:51.486Z,990.45
2017-02-27T13:02:31.975Z,990.51
2017-02-27T13:03:12.482Z,990.5
2017-02-27T13:03:52.990Z,990.52
2017-02-27T13:04:33.554Z,990.42
2017-02-27T13:05:14.128Z,990.48
2017-02-27T13:05:54.547Z,990.41
2017-02-27T13:06:35.037Z,990.38
2017-02-27T13:07:15.602Z,990.35
2017-02-27T13:07:56.051Z,990.32
2017-02-27T13:08:36.625Z,990.24
2017-02-27T13:09:17.118Z,990.24
2017-02-27T13:09:57.558Z,990.19
2017-02-27T13:10:38.113Z,990.19
2017-02-27T13:11:18.669Z,990.18
2017-02-27T13:11:59.091Z,990.17
2017-02-27T13:12:39.560Z,990.14
2017-02-27T13:13:20.078Z,990.13
2017-02-27T13:14:00.549Z,990.03
2017-02-27T13:14:41.162Z,990.01
2017-02-27T13:15:21.679Z,989.98
2017-02-27T13:16:02.130Z,989.98
2017-02-27T13:16:42.692Z,990
2017-02-27T13:17:23.144Z,989.99
2017-02-27T13:18:03.693Z,989.95
2017-02-27T13:18:44.282Z,989.91
2017-02-27T13:19:24.797Z,989.97
2017-02-27T13:20:05.490Z,989.94
2017-02-27T13:20:45.948Z,989.97
2017-02-27T13:21:26.396Z,989.99
2017-02-27T13:22:06.913Z,989.97
2017-02-27T13:22:47.378Z,989.88
2017-02-27T13:23:27.882Z,989.92
2017-02-27T13:24:08.404Z,989.88
2017-02-27T13:24:48.868Z,989.91
2017-02-27T13:25:29.367Z,989.89
2017-02-27T13:26:10.706Z,989.86
2017-02-27T13:26:51.180Z,989.91
2017-02-27T13:27:31.665Z,989.95
2017-02-27T13:28:12.636Z,989.93
2017-02-27T13:28:52.739Z,989.87
2017-02-27T13:29:33.261Z,989.88
2017-02-27T13:30:13.986Z,989.92
2017-02-27T13:30:54.596Z,989.89
2017-02-27T13:31:35.107Z,989.87
2017-02-27T13:32:16.074Z,989.78
2017-02-27T13:33:05.917Z,989.81
2017-02-27T13:37:06.555Z,989.74
2017-02-27T13:38:02.048Z,989.67
2017-02-27T13:43:53.988Z,989.45
2017-02-27T13:50:48.021Z,989.34
2017-02-27T14:00:28.800Z,989.07
2017-02-27T14:13:53.997Z,988.42
2017-02-27T14:14:50.011Z,988.53
2017-02-27T14:15:41.928Z,988.49
2017-02-27T14:19:45.404Z,988.41
2017-02-27T14:22:16.877Z,988.35
2017-02-27T14:25:59.173Z,988.21
2017-02-27T14:26:42.802Z,988.21
2017-02-27T14:27:28.019Z,988.22
2017-02-27T14:28:07.477Z,988.24
2017-02-27T14:28:47.992Z,988.17
2017-02-27T14:29:28.490Z,988.21
2017-02-27T14:30:09.846Z,988.14
2017-02-27T14:30:50.353Z,988.1
2017-02-27T14:31:30.841Z,988.14
2017-02-27T14:32:13.797Z,988.17
2017-02-27T14:32:53.179Z,988.07
2017-02-27T15:35:03.855Z,987.19
2017-02-27T15:35:52.731Z,987.2
2017-02-27T15:36:41.193Z,987.15
2017-02-27T15:37:31.337Z,987.2
2017-02-27T15:38:19.752Z,987.11
2017-02-27T15:39:08.903Z,987.17
2017-02-27T15:39:59.380Z,987.19
2017-02-27T15:40:48.111Z,987.21
2017-02-27T15:41:38.267Z,987.22
2017-02-27T15:42:27.042Z,987.11
2017-02-27T15:43:15.836Z,987.15
2017-02-27T15:44:01.595Z,987.23
2017-02-27T15:45:42.723Z,987.23
2017-02-27T15:46:42.037Z,987.08
2017-02-27T15:47:31.156Z,987.12
2017-02-27T15:50:07.676Z,987.06
2017-02-27T15:52:03.573Z,987.19
2017-02-27T15:53:04.161Z,987.24
2017-02-27T15:53:53.991Z,987.26
2017-02-27T15:54:35.255Z,987.25
2017-02-27T15:55:15.741Z,987.32
2017-02-27T15:55:56.489Z,987.3
2017-02-27T15:56:36.931Z,987.3
2017-02-27T15:57:17.822Z,987.28
2017-02-27T15:57:58.652Z,987.28
2017-02-27T15:58:39.352Z,987.32
2017-02-27T15:59:20.267Z,987.27
2017-02-27T16:00:01.797Z,987.34
2017-02-27T16:00:43.107Z,987.32
2017-02-27T16:01:28.604Z,987.36
2017-02-27T16:02:12.079Z,987.35
2017-02-27T16:02:54.208Z,987.36
2017-02-27T16:03:34.769Z,987.39
2017-02-27T16:04:15.444Z,987.33
2017-02-27T16:04:56.427Z,987.5
2017-02-27T16:05:37.375Z,987.41
2017-02-27T16:06:17.919Z,987.49
2017-02-27T16:06:58.518Z,987.44
2017-02-27T16:07:39.081Z,987.51
2017-02-27T16:08:19.650Z,987.53
2017-02-27T16:09:00.167Z,987.45
2017-02-27T16:09:40.716Z,987.51
2017-02-27T16:10:21.202Z,987.48
2017-02-27T16:11:01.789Z,987.53
2017-02-27T16:11:42.157Z,987.48
2017-02-27T16:12:22.881Z,987.48
2017-02-27T16:13:03.339Z,987.49
2017-02-27T16:13:43.931Z,987.46
2017-02-27T16:14:24.499Z,987.42
2017-02-27T16:15:04.947Z,987.47
2017-02-27T16:15:45.519Z,987.54
2017-02-27T16:16:25.984Z,987.51
2017-02-27T16:17:06.477Z,987.43
2017-02-27T16:17:46.924Z,987.45
2017-02-27T16:18:27.429Z,987.38
2017-02-27T16:19:08.128Z,987.29
2017-02-27T16:19:48.717Z,987.29
2017-02-27T16:20:29.283Z,987.36
2017-02-27T16:21:09.889Z,987.32
2017-02-27T16:21:50.319Z,987.3
2017-02-27T16:22:30.860Z,987.23
2017-02-27T16:23:11.435Z,987.23
2017-02-27T16:23:51.957Z,987.23
2017-02-27T16:24:32.484Z,987.2
2017-02-27T16:25:12.963Z,987.28
2017-02-27T16:25:53.444Z,987.11
2017-02-27T16:26:34.123Z,987.09
2017-02-27T16:27:14.733Z,987.12
2017-02-27T16:27:55.229Z,987.08
2017-02-27T16:28:35.763Z,987.1
2017-02-27T16:29:16.384Z,987.09
2017-02-27T16:29:56.845Z,987.07
2017-02-27T16:30:37.386Z,986.99
2017-02-27T16:31:17.858Z,987.03
2017-02-27T16:31:58.372Z,987.01
2017-02-27T16:32:38.961Z,987
2017-02-27T16:33:19.317Z,986.93
2017-02-27T16:33:59.903Z,986.97
2017-02-27T16:34:40.293Z,986.9
2017-02-27T16:35:20.887Z,986.95
2017-02-27T16:36:01.342Z,986.89
2017-02-27T16:36:41.879Z,986.89
2017-02-27T16:37:22.957Z,986.87
2017-02-27T16:38:04.320Z,986.86
2017-02-27T16:38:45.476Z,986.82
2017-02-27T16:39:25.904Z,986.82
2017-02-27T16:40:06.505Z,986.81
2017-02-27T16:40:47.104Z,986.75
2017-02-27T16:41:27.452Z,986.76
2017-02-27T16:42:07.937Z,986.69
2017-02-27T16:42:48.812Z,986.65
2017-02-27T16:43:29.803Z,986.64
2017-02-27T16:44:10.290Z,986.61
2017-02-27T16:44:50.804Z,986.67
2017-02-27T16:45:31.289Z,986.61
2017-02-27T16:46:11.851Z,986.56
2017-02-27T16:48:25.113Z,986.5
2017-02-27T16:49:05.645Z,986.5
2017-02-27T16:49:46.430Z,986.49
2017-02-27T16:50:26.929Z,986.41
2017-02-27T16:51:07.433Z,986.4
2017-02-27T16:51:47.936Z,986.34
2017-02-27T16:52:28.436Z,986.3
2017-02-27T16:53:08.939Z,986.33
2017-02-27T16:53:49.439Z,986.35
2017-02-27T16:54:29.930Z,986.34
2017-02-27T16:55:10.483Z,986.36
2017-02-27T16:55:50.980Z,986.36
2017-02-27T16:56:31.435Z,986.34
2017-02-27T16:57:11.969Z,986.37
2017-02-27T16:57:52.516Z,986.34
2017-02-27T16:58:33.020Z,986.32
2017-02-27T16:59:13.497Z,986.37
2017-02-27T16:59:53.962Z,986.34
2017-02-27T17:00:34.460Z,986.35
2017-02-27T17:01:14.937Z,986.35
2017-02-27T17:01:55.431Z,986.33
2017-02-27T17:02:36.022Z,986.36
2017-02-27T17:03:16.511Z,986.39
2017-02-27T17:03:57.045Z,986.39
2017-02-27T17:04:37.558Z,986.38
2017-02-27T17:05:18.093Z,986.4
2017-02-27T17:05:58.913Z,986.35
2017-02-27T17:06:39.470Z,986.4
2017-02-27T17:07:20.034Z,986.43
2017-02-27T17:08:00.501Z,986.34
2017-02-27T17:08:41.048Z,986.39
2017-02-27T17:09:21.540Z,986.38
2017-02-27T17:10:02.069Z,986.33
2017-02-27T17:10:42.617Z,986.4
2017-02-27T17:11:23.168Z,986.31
2017-02-27T17:12:03.651Z,986.3
2017-02-27T17:12:44.176Z,986.31
2017-02-27T17:13:24.675Z,986.25
2017-02-27T17:14:05.126Z,986.25
2017-02-27T17:14:45.661Z,986.26
2017-02-27T17:15:26.171Z,986.24
2017-02-27T17:16:06.702Z,986.19
2017-02-27T17:16:47.183Z,986.22
2017-02-27T17:17:27.798Z,986.21
2017-02-27T17:18:08.300Z,986.16
2017-02-27T17:18:48.789Z,986.09
2017-02-27T17:19:29.288Z,986.05
2017-02-27T17:20:09.783Z,986.08
2017-02-27T17:20:50.370Z,986.08
2017-02-27T17:21:30.865Z,986.1
2017-02-27T17:22:11.375Z,986.04
2017-02-27T17:22:51.831Z,986.07
2017-02-27T17:23:32.443Z,986
2017-02-27T17:24:12.894Z,985.96
2017-02-27T17:24:53.394Z,985.96
2017-02-27T17:25:33.928Z,985.95
2017-02-27T17:26:14.407Z,985.92
2017-02-27T17:26:54.958Z,985.88
2017-02-27T17:27:35.453Z,985.9
2017-02-27T17:28:15.949Z,985.86
2017-02-27T17:28:56.434Z,985.87
2017-02-27T17:29:36.926Z,985.89
2017-02-27T17:30:17.412Z,985.89
2017-02-27T17:30:57.931Z,985.87
2017-02-27T17:31:38.455Z,985.79
2017-02-27T17:32:18.892Z,985.82
2017-02-27T17:32:59.363Z,985.76
2017-02-27T17:33:39.913Z,985.79
2017-02-27T17:34:20.411Z,985.82
2017-02-27T17:35:01.124Z,985.78
2017-02-27T17:35:41.543Z,985.79
2017-02-27T17:36:22.101Z,985.79
2017-02-27T17:37:02.616Z,985.79
2017-02-27T17:37:43.128Z,985.79
2017-02-27T17:38:23.628Z,985.79
2017-02-27T17:39:04.224Z,985.73
2017-02-27T17:39:44.773Z,985.66